Aeroporto :
LOGIN :

Iscrizione | Disclaimer

   EN    FR    IT 

 










Sommario :    VFR   VFR Marginale   IFR   IFR Intensivo   IFR Molto Intensivo
Visibilità : 
Base nubi : 
>= 8 km
>= 3000ft
5 / 8 km
1000 / 3000 ft
1500m / 5 km
500 / 1000 ft
800 / 1500m
200 / 500 ft
< 800m
< 200 ft
Simboli :   Temporali  Nebbia  Neve Forte  Precipitazioni Forti  Vento > 20 kt
SIGMETs :   Varie  Temporali  Ghiacco  Turbolenza  Onda orograficha  Ceneri Vulcaniche






- Altitudine del aeroporto : 939 ft


LKKB - Kbely Air Base

ULTIMO METAR :
  • 270400Z 19003KT CAVOK 06/05 Q1033 NOSIG

METARs OBSOLETI :
  • 270330Z 20004KT CAVOK 04/04 Q1033
  • 270300Z 21003KT CAVOK 06/05 Q1033
  • 270230Z 20004KT CAVOK 06/05 Q1033
  • 270200Z 22004KT CAVOK 06/04 Q1033
  • 270130Z 23004KT CAVOK 07/06 Q1033

TAF TAF LKKB
Valido dal 27 a 00 ore il 28 a 00 ore UTC


262300Z 2700/2800 26004KT CAVOK
BECMG 2707/2709 35007KT
TEMPO 2708/2712 SCT030
TEMPO 2714/2717 36014KT



MetMap, La meteo Aeronautica in un colpo d'occhio ! - Copyright ORBIFLY Dicembre 2007 - Disclaimer

ORBIFLY MET'MAP TEAM :

Programmazione e sviluppo : Alexandra Zaïnal
Concezione : Baudouin d'Aumeries
Aiuto per la programmazione : Marc-Olivier Méhu
Supporto tecnico e logistico : Manuel Goepfert
Aiuto per la traduzione : Arnaldo La Scala

Contatto : metmap@orbifly.com




FONTI E CREDITI :

   NOAA